sensor_id;sensor_type;location;lat;lon;timestamp;P1;durP1;ratioP1;P2;durP2;ratioP2
46729;SDS011;32476;50.002;11.854;2023-02-11T00:01:29;42.27;;;20.43;;
46729;SDS011;32476;50.002;11.854;2023-02-11T00:03:58;36.50;;;19.23;;
46729;SDS011;32476;50.002;11.854;2023-02-11T00:06:27;35.63;;;18.97;;
46729;SDS011;32476;50.002;11.854;2023-02-11T00:08:54;39.70;;;20.40;;
46729;SDS011;32476;50.002;11.854;2023-02-11T00:11:20;41.10;;;19.17;;
46729;SDS011;32476;50.002;11.854;2023-02-11T00:13:52;37.73;;;21.20;;
46729;SDS011;32476;50.002;11.854;2023-02-11T00:16:18;37.97;;;19.80;;
46729;SDS011;32476;50.002;11.854;2023-02-11T00:18:45;42.33;;;20.77;;
46729;SDS011;32476;50.002;11.854;2023-02-11T00:21:14;40.63;;;20.53;;
46729;SDS011;32476;50.002;11.854;2023-02-11T00:23:43;43.23;;;21.17;;
46729;SDS011;32476;50.002;11.854;2023-02-11T00:26:21;38.73;;;20.97;;
46729;SDS011;32476;50.002;11.854;2023-02-11T00:28:51;38.67;;;20.63;;
46729;SDS011;32476;50.002;11.854;2023-02-11T00:31:18;46.27;;;21.90;;
46729;SDS011;32476;50.002;11.854;2023-02-11T00:33:47;43.13;;;22.53;;
46729;SDS011;32476;50.002;11.854;2023-02-11T00:36:19;44.57;;;23.13;;
46729;SDS011;32476;50.002;11.854;2023-02-11T00:38:48;44.67;;;21.97;;
46729;SDS011;32476;50.002;11.854;2023-02-11T00:41:17;49.20;;;23.73;;
46729;SDS011;32476;50.002;11.854;2023-02-11T00:43:44;45.07;;;22.10;;
46729;SDS011;32476;50.002;11.854;2023-02-11T00:46:10;43.77;;;22.67;;
46729;SDS011;32476;50.002;11.854;2023-02-11T00:48:39;45.90;;;22.43;;
46729;SDS011;32476;50.002;11.854;2023-02-11T00:51:05;44.33;;;22.40;;
46729;SDS011;32476;50.002;11.854;2023-02-11T00:53:32;44.63;;;23.13;;
46729;SDS011;32476;50.002;11.854;2023-02-11T00:56:00;49.00;;;23.67;;
46729;SDS011;32476;50.002;11.854;2023-02-11T00:58:26;46.63;;;23.07;;
46729;SDS011;32476;50.002;11.854;2023-02-11T01:00:54;51.57;;;22.67;;
46729;SDS011;32476;50.002;11.854;2023-02-11T01:03:22;43.77;;;22.67;;
46729;SDS011;32476;50.002;11.854;2023-02-11T01:05:48;48.87;;;24.53;;
46729;SDS011;32476;50.002;11.854;2023-02-11T01:08:14;48.43;;;24.33;;
46729;SDS011;32476;50.002;11.854;2023-02-11T01:10:41;48.40;;;23.57;;
46729;SDS011;32476;50.002;11.854;2023-02-11T01:13:08;49.37;;;23.53;;
46729;SDS011;32476;50.002;11.854;2023-02-11T01:15:34;50.47;;;24.80;;
46729;SDS011;32476;50.002;11.854;2023-02-11T01:18:03;48.70;;;24.63;;
46729;SDS011;32476;50.002;11.854;2023-02-11T01:20:30;46.03;;;23.00;;
46729;SDS011;32476;50.002;11.854;2023-02-11T01:22:56;49.17;;;24.73;;
46729;SDS011;32476;50.002;11.854;2023-02-11T01:25:23;45.17;;;22.53;;
46729;SDS011;32476;50.002;11.854;2023-02-11T01:27:49;49.70;;;25.33;;
46729;SDS011;32476;50.002;11.854;2023-02-11T01:30:15;47.13;;;23.53;;
46729;SDS011;32476;50.002;11.854;2023-02-11T01:32:43;45.30;;;22.57;;
46729;SDS011;32476;50.002;11.854;2023-02-11T01:35:09;49.43;;;24.07;;
46729;SDS011;32476;50.002;11.854;2023-02-11T01:37:35;49.17;;;23.73;;
46729;SDS011;32476;50.002;11.854;2023-02-11T01:40:03;43.47;;;22.00;;
46729;SDS011;32476;50.002;11.854;2023-02-11T01:42:32;45.60;;;23.23;;
46729;SDS011;32476;50.002;11.854;2023-02-11T01:44:58;50.93;;;23.90;;
46729;SDS011;32476;50.002;11.854;2023-02-11T01:47:27;43.43;;;22.90;;
46729;SDS011;32476;50.002;11.854;2023-02-11T01:49:54;41.63;;;21.30;;
46729;SDS011;32476;50.002;11.854;2023-02-11T01:52:31;45.50;;;22.47;;
46729;SDS011;32476;50.002;11.854;2023-02-11T01:55:02;43.10;;;23.00;;
46729;SDS011;32476;50.002;11.854;2023-02-11T01:57:51;42.33;;;20.97;;
46729;SDS011;32476;50.002;11.854;2023-02-11T02:00:23;46.73;;;23.27;;
46729;SDS011;32476;50.002;11.854;2023-02-11T02:03:07;40.87;;;20.67;;
46729;SDS011;32476;50.002;11.854;2023-02-11T02:08:38;41.87;;;21.80;;
46729;SDS011;32476;50.002;11.854;2023-02-11T02:11:32;47.17;;;22.77;;
46729;SDS011;32476;50.002;11.854;2023-02-11T02:13:59;44.77;;;20.87;;
46729;SDS011;32476;50.002;11.854;2023-02-11T02:16:28;44.33;;;21.70;;
46729;SDS011;32476;50.002;11.854;2023-02-11T02:28:30;50.10;;;21.47;;
46729;SDS011;32476;50.002;11.854;2023-02-11T02:34:47;42.23;;;20.30;;
46729;SDS011;32476;50.002;11.854;2023-02-11T02:40:16;46.57;;;21.43;;
46729;SDS011;32476;50.002;11.854;2023-02-11T02:42:57;47.40;;;21.60;;
46729;SDS011;32476;50.002;11.854;2023-02-11T02:45:24;42.87;;;22.03;;
46729;SDS011;32476;50.002;11.854;2023-02-11T02:47:50;48.67;;;24.10;;
46729;SDS011;32476;50.002;11.854;2023-02-11T02:50:19;44.80;;;22.90;;
46729;SDS011;32476;50.002;11.854;2023-02-11T02:52:58;41.07;;;20.80;;
46729;SDS011;32476;50.002;11.854;2023-02-11T02:56:12;50.23;;;21.70;;
46729;SDS011;32476;50.002;11.854;2023-02-11T02:59:04;42.50;;;21.27;;
46729;SDS011;32476;50.002;11.854;2023-02-11T03:02:02;44.13;;;21.07;;
46729;SDS011;32476;50.002;11.854;2023-02-11T03:04:47;46.90;;;21.90;;
46729;SDS011;32476;50.002;11.854;2023-02-11T03:10:25;46.47;;;22.00;;
46729;SDS011;32476;50.002;11.854;2023-02-11T03:12:57;44.50;;;22.80;;
46729;SDS011;32476;50.002;11.854;2023-02-11T03:15:26;45.60;;;22.17;;
46729;SDS011;32476;50.002;11.854;2023-02-11T03:17:57;46.60;;;21.27;;
46729;SDS011;32476;50.002;11.854;2023-02-11T03:20:26;45.63;;;22.80;;
46729;SDS011;32476;50.002;11.854;2023-02-11T03:22:56;53.03;;;24.27;;
46729;SDS011;32476;50.002;11.854;2023-02-11T03:25:40;42.13;;;22.47;;
46729;SDS011;32476;50.002;11.854;2023-02-11T03:28:13;48.17;;;21.90;;
46729;SDS011;32476;50.002;11.854;2023-02-11T03:30:54;41.83;;;21.20;;
46729;SDS011;32476;50.002;11.854;2023-02-11T03:33:48;43.07;;;21.03;;
46729;SDS011;32476;50.002;11.854;2023-02-11T03:36:25;44.87;;;22.63;;
46729;SDS011;32476;50.002;11.854;2023-02-11T03:39:11;42.33;;;20.93;;
46729;SDS011;32476;50.002;11.854;2023-02-11T03:41:43;42.70;;;21.17;;
46729;SDS011;32476;50.002;11.854;2023-02-11T03:44:12;59.93;;;29.07;;
46729;SDS011;32476;50.002;11.854;2023-02-11T03:46:41;50.20;;;25.17;;
46729;SDS011;32476;50.002;11.854;2023-02-11T03:49:15;48.33;;;23.60;;
46729;SDS011;32476;50.002;11.854;2023-02-11T03:51:44;49.53;;;23.30;;
46729;SDS011;32476;50.002;11.854;2023-02-11T03:54:15;50.40;;;22.90;;
46729;SDS011;32476;50.002;11.854;2023-02-11T03:56:50;44.03;;;22.97;;
46729;SDS011;32476;50.002;11.854;2023-02-11T03:59:20;52.57;;;24.00;;
46729;SDS011;32476;50.002;11.854;2023-02-11T04:01:47;47.97;;;23.80;;
46729;SDS011;32476;50.002;11.854;2023-02-11T04:04:13;45.73;;;23.77;;
46729;SDS011;32476;50.002;11.854;2023-02-11T04:06:40;54.20;;;26.37;;
46729;SDS011;32476;50.002;11.854;2023-02-11T04:09:07;55.60;;;23.50;;
46729;SDS011;32476;50.002;11.854;2023-02-11T04:11:34;52.07;;;25.20;;
46729;SDS011;32476;50.002;11.854;2023-02-11T04:14:01;49.20;;;24.53;;
46729;SDS011;32476;50.002;11.854;2023-02-11T04:16:28;51.93;;;24.20;;
46729;SDS011;32476;50.002;11.854;2023-02-11T04:18:55;44.20;;;21.43;;
46729;SDS011;32476;50.002;11.854;2023-02-11T04:21:23;51.93;;;24.80;;
46729;SDS011;32476;50.002;11.854;2023-02-11T04:23:49;50.10;;;24.77;;
46729;SDS011;32476;50.002;11.854;2023-02-11T04:26:15;58.70;;;25.63;;
46729;SDS011;32476;50.002;11.854;2023-02-11T04:28:42;54.27;;;25.03;;
46729;SDS011;32476;50.002;11.854;2023-02-11T04:31:08;50.47;;;23.80;;
46729;SDS011;32476;50.002;11.854;2023-02-11T04:33:36;52.17;;;23.93;;
46729;SDS011;32476;50.002;11.854;2023-02-11T04:36:03;53.83;;;24.70;;
46729;SDS011;32476;50.002;11.854;2023-02-11T04:38:29;59.10;;;24.93;;
46729;SDS011;32476;50.002;11.854;2023-02-11T04:40:56;52.57;;;24.83;;
46729;SDS011;32476;50.002;11.854;2023-02-11T04:43:26;53.50;;;25.23;;
46729;SDS011;32476;50.002;11.854;2023-02-11T04:45:55;53.83;;;24.43;;
46729;SDS011;32476;50.002;11.854;2023-02-11T04:48:22;56.37;;;24.53;;
46729;SDS011;32476;50.002;11.854;2023-02-11T04:50:51;55.63;;;24.80;;
46729;SDS011;32476;50.002;11.854;2023-02-11T04:53:16;49.13;;;23.30;;
46729;SDS011;32476;50.002;11.854;2023-02-11T04:55:42;52.17;;;25.20;;
46729;SDS011;32476;50.002;11.854;2023-02-11T04:58:10;51.37;;;24.97;;
46729;SDS011;32476;50.002;11.854;2023-02-11T05:00:36;53.97;;;26.43;;
46729;SDS011;32476;50.002;11.854;2023-02-11T05:03:02;53.30;;;25.33;;
46729;SDS011;32476;50.002;11.854;2023-02-11T05:05:29;62.83;;;25.80;;
46729;SDS011;32476;50.002;11.854;2023-02-11T05:07:55;59.93;;;25.87;;
46729;SDS011;32476;50.002;11.854;2023-02-11T05:10:21;57.17;;;27.00;;
46729;SDS011;32476;50.002;11.854;2023-02-11T05:12:49;51.03;;;25.30;;
46729;SDS011;32476;50.002;11.854;2023-02-11T05:15:15;53.87;;;24.90;;
46729;SDS011;32476;50.002;11.854;2023-02-11T05:17:41;61.83;;;26.67;;
46729;SDS011;32476;50.002;11.854;2023-02-11T05:20:08;57.47;;;26.27;;
46729;SDS011;32476;50.002;11.854;2023-02-11T05:22:35;50.67;;;24.63;;
46729;SDS011;32476;50.002;11.854;2023-02-11T05:25:00;60.03;;;26.30;;
46729;SDS011;32476;50.002;11.854;2023-02-11T05:27:29;56.77;;;25.37;;
46729;SDS011;32476;50.002;11.854;2023-02-11T05:29:55;52.43;;;24.73;;
46729;SDS011;32476;50.002;11.854;2023-02-11T05:32:21;64.80;;;27.33;;
46729;SDS011;32476;50.002;11.854;2023-02-11T05:34:49;53.00;;;26.63;;
46729;SDS011;32476;50.002;11.854;2023-02-11T05:37:15;58.10;;;26.47;;
46729;SDS011;32476;50.002;11.854;2023-02-11T05:39:41;59.10;;;26.70;;
46729;SDS011;32476;50.002;11.854;2023-02-11T05:42:08;61.10;;;26.90;;
46729;SDS011;32476;50.002;11.854;2023-02-11T05:44:34;57.93;;;27.20;;
46729;SDS011;32476;50.002;11.854;2023-02-11T05:47:00;59.07;;;27.43;;
46729;SDS011;32476;50.002;11.854;2023-02-11T05:49:28;61.43;;;27.83;;
46729;SDS011;32476;50.002;11.854;2023-02-11T05:51:54;65.43;;;27.80;;
46729;SDS011;32476;50.002;11.854;2023-02-11T05:54:20;67.90;;;29.87;;
46729;SDS011;32476;50.002;11.854;2023-02-11T05:56:47;67.80;;;28.50;;
46729;SDS011;32476;50.002;11.854;2023-02-11T05:59:13;70.40;;;28.60;;
46729;SDS011;32476;50.002;11.854;2023-02-11T06:01:39;66.33;;;27.80;;
46729;SDS011;32476;50.002;11.854;2023-02-11T06:04:07;62.27;;;28.03;;
46729;SDS011;32476;50.002;11.854;2023-02-11T06:06:32;70.67;;;29.60;;
46729;SDS011;32476;50.002;11.854;2023-02-11T06:08:58;64.70;;;29.73;;
46729;SDS011;32476;50.002;11.854;2023-02-11T06:11:26;67.60;;;29.00;;
46729;SDS011;32476;50.002;11.854;2023-02-11T06:13:52;64.87;;;29.63;;
46729;SDS011;32476;50.002;11.854;2023-02-11T06:16:18;76.60;;;28.53;;
46729;SDS011;32476;50.002;11.854;2023-02-11T06:18:45;66.70;;;28.97;;
46729;SDS011;32476;50.002;11.854;2023-02-11T06:21:11;63.87;;;27.83;;
46729;SDS011;32476;50.002;11.854;2023-02-11T06:23:37;62.10;;;29.37;;
46729;SDS011;32476;50.002;11.854;2023-02-11T06:26:05;74.30;;;30.97;;
46729;SDS011;32476;50.002;11.854;2023-02-11T06:28:34;70.33;;;29.07;;
46729;SDS011;32476;50.002;11.854;2023-02-11T06:31:04;67.53;;;30.03;;
46729;SDS011;32476;50.002;11.854;2023-02-11T06:33:33;65.20;;;28.13;;
46729;SDS011;32476;50.002;11.854;2023-02-11T06:36:00;66.47;;;29.40;;
46729;SDS011;32476;50.002;11.854;2023-02-11T06:38:27;66.77;;;29.07;;
46729;SDS011;32476;50.002;11.854;2023-02-11T06:40:54;66.17;;;29.50;;
46729;SDS011;32476;50.002;11.854;2023-02-11T06:43:20;65.63;;;30.90;;
46729;SDS011;32476;50.002;11.854;2023-02-11T06:45:51;61.97;;;25.23;;
46729;SDS011;32476;50.002;11.854;2023-02-11T06:48:20;62.77;;;28.03;;
46729;SDS011;32476;50.002;11.854;2023-02-11T06:50:47;70.70;;;29.83;;
46729;SDS011;32476;50.002;11.854;2023-02-11T06:53:13;56.83;;;27.53;;
46729;SDS011;32476;50.002;11.854;2023-02-11T06:55:40;62.23;;;29.17;;
46729;SDS011;32476;50.002;11.854;2023-02-11T06:58:06;59.90;;;27.63;;
46729;SDS011;32476;50.002;11.854;2023-02-11T07:00:32;55.83;;;27.67;;
46729;SDS011;32476;50.002;11.854;2023-02-11T07:03:00;56.20;;;28.83;;
46729;SDS011;32476;50.002;11.854;2023-02-11T07:05:26;55.27;;;25.70;;
46729;SDS011;32476;50.002;11.854;2023-02-11T07:07:52;60.60;;;26.57;;
46729;SDS011;32476;50.002;11.854;2023-02-11T07:10:19;57.37;;;25.23;;
46729;SDS011;32476;50.002;11.854;2023-02-11T07:12:45;60.53;;;27.23;;
46729;SDS011;32476;50.002;11.854;2023-02-11T07:15:11;51.53;;;24.67;;
46729;SDS011;32476;50.002;11.854;2023-02-11T07:17:38;50.97;;;24.53;;
46729;SDS011;32476;50.002;11.854;2023-02-11T07:20:04;50.07;;;24.13;;
46729;SDS011;32476;50.002;11.854;2023-02-11T07:22:31;46.57;;;22.67;;
46729;SDS011;32476;50.002;11.854;2023-02-11T07:25:00;57.07;;;24.90;;
46729;SDS011;32476;50.002;11.854;2023-02-11T07:27:26;57.93;;;25.47;;
46729;SDS011;32476;50.002;11.854;2023-02-11T07:29:52;48.07;;;23.73;;
46729;SDS011;32476;50.002;11.854;2023-02-11T07:32:19;50.37;;;24.47;;
46729;SDS011;32476;50.002;11.854;2023-02-11T07:34:46;52.07;;;24.83;;
46729;SDS011;32476;50.002;11.854;2023-02-11T07:37:12;54.27;;;26.60;;
46729;SDS011;32476;50.002;11.854;2023-02-11T07:39:40;55.70;;;26.40;;
46729;SDS011;32476;50.002;11.854;2023-02-11T07:42:05;58.33;;;27.60;;
46729;SDS011;32476;50.002;11.854;2023-02-11T07:44:31;60.03;;;28.23;;
46729;SDS011;32476;50.002;11.854;2023-02-11T07:46:59;60.40;;;27.50;;
46729;SDS011;32476;50.002;11.854;2023-02-11T07:49:25;56.73;;;26.27;;
46729;SDS011;32476;50.002;11.854;2023-02-11T07:51:51;61.77;;;28.97;;
46729;SDS011;32476;50.002;11.854;2023-02-11T07:54:19;59.87;;;28.67;;
46729;SDS011;32476;50.002;11.854;2023-02-11T07:56:45;62.63;;;28.30;;
46729;SDS011;32476;50.002;11.854;2023-02-11T07:59:10;63.90;;;29.70;;
46729;SDS011;32476;50.002;11.854;2023-02-11T08:01:38;61.23;;;29.13;;
46729;SDS011;32476;50.002;11.854;2023-02-11T08:04:04;69.37;;;30.53;;
46729;SDS011;32476;50.002;11.854;2023-02-11T08:06:31;58.83;;;29.40;;
46729;SDS011;32476;50.002;11.854;2023-02-11T08:09:05;56.10;;;27.30;;
46729;SDS011;32476;50.002;11.854;2023-02-11T08:11:33;62.23;;;28.80;;
46729;SDS011;32476;50.002;11.854;2023-02-11T08:14:00;65.00;;;27.97;;
46729;SDS011;32476;50.002;11.854;2023-02-11T08:16:33;60.83;;;26.90;;
46729;SDS011;32476;50.002;11.854;2023-02-11T08:19:03;63.03;;;29.33;;
46729;SDS011;32476;50.002;11.854;2023-02-11T08:21:32;67.17;;;30.33;;
46729;SDS011;32476;50.002;11.854;2023-02-11T08:23:59;60.27;;;28.37;;
46729;SDS011;32476;50.002;11.854;2023-02-11T08:26:29;57.90;;;28.43;;
46729;SDS011;32476;50.002;11.854;2023-02-11T08:28:59;56.77;;;27.83;;
46729;SDS011;32476;50.002;11.854;2023-02-11T08:31:31;66.73;;;29.83;;
46729;SDS011;32476;50.002;11.854;2023-02-11T08:34:00;61.70;;;28.73;;
46729;SDS011;32476;50.002;11.854;2023-02-11T08:36:27;64.07;;;29.33;;
46729;SDS011;32476;50.002;11.854;2023-02-11T08:39:03;65.77;;;29.80;;
46729;SDS011;32476;50.002;11.854;2023-02-11T08:41:52;62.13;;;30.23;;
46729;SDS011;32476;50.002;11.854;2023-02-11T08:47:16;58.47;;;27.60;;
46729;SDS011;32476;50.002;11.854;2023-02-11T08:49:43;62.57;;;29.50;;
46729;SDS011;32476;50.002;11.854;2023-02-11T08:52:09;68.67;;;31.37;;
46729;SDS011;32476;50.002;11.854;2023-02-11T08:54:36;63.77;;;29.67;;
46729;SDS011;32476;50.002;11.854;2023-02-11T08:57:03;68.27;;;31.03;;
46729;SDS011;32476;50.002;11.854;2023-02-11T08:59:30;60.77;;;29.50;;
46729;SDS011;32476;50.002;11.854;2023-02-11T09:01:56;66.30;;;30.07;;
46729;SDS011;32476;50.002;11.854;2023-02-11T09:04:23;60.13;;;29.27;;
46729;SDS011;32476;50.002;11.854;2023-02-11T09:06:50;62.20;;;28.70;;
46729;SDS011;32476;50.002;11.854;2023-02-11T09:09:16;58.17;;;28.30;;
46729;SDS011;32476;50.002;11.854;2023-02-11T09:11:43;62.13;;;29.77;;
46729;SDS011;32476;50.002;11.854;2023-02-11T09:14:17;55.40;;;26.70;;
46729;SDS011;32476;50.002;11.854;2023-02-11T09:16:49;65.27;;;30.53;;
46729;SDS011;32476;50.002;11.854;2023-02-11T09:19:17;58.67;;;28.27;;
46729;SDS011;32476;50.002;11.854;2023-02-11T09:21:44;57.93;;;28.30;;
46729;SDS011;32476;50.002;11.854;2023-02-11T09:24:12;65.90;;;29.47;;
46729;SDS011;32476;50.002;11.854;2023-02-11T09:26:40;65.93;;;29.43;;
46729;SDS011;32476;50.002;11.854;2023-02-11T09:29:07;60.30;;;27.53;;
46729;SDS011;32476;50.002;11.854;2023-02-11T09:31:35;59.60;;;29.03;;
46729;SDS011;32476;50.002;11.854;2023-02-11T09:34:01;65.33;;;30.13;;
46729;SDS011;32476;50.002;11.854;2023-02-11T09:36:34;57.47;;;29.67;;
46729;SDS011;32476;50.002;11.854;2023-02-11T09:39:05;61.47;;;28.83;;
46729;SDS011;32476;50.002;11.854;2023-02-11T09:41:41;64.27;;;28.80;;
46729;SDS011;32476;50.002;11.854;2023-02-11T09:44:34;57.93;;;29.47;;
46729;SDS011;32476;50.002;11.854;2023-02-11T09:47:03;61.17;;;30.00;;
46729;SDS011;32476;50.002;11.854;2023-02-11T09:50:04;60.37;;;29.80;;
46729;SDS011;32476;50.002;11.854;2023-02-11T09:52:40;58.50;;;28.63;;
46729;SDS011;32476;50.002;11.854;2023-02-11T09:55:53;59.27;;;29.70;;
46729;SDS011;32476;50.002;11.854;2023-02-11T09:58:33;63.77;;;30.07;;
46729;SDS011;32476;50.002;11.854;2023-02-11T10:07:03;61.67;;;30.27;;
46729;SDS011;32476;50.002;11.854;2023-02-11T10:09:59;63.80;;;30.13;;
46729;SDS011;32476;50.002;11.854;2023-02-11T10:17:18;63.40;;;31.03;;
46729;SDS011;32476;50.002;11.854;2023-02-11T10:22:46;61.97;;;30.17;;
46729;SDS011;32476;50.002;11.854;2023-02-11T10:25:26;63.20;;;30.80;;
46729;SDS011;32476;50.002;11.854;2023-02-11T10:27:59;62.53;;;29.30;;
46729;SDS011;32476;50.002;11.854;2023-02-11T10:30:42;54.17;;;27.93;;
46729;SDS011;32476;50.002;11.854;2023-02-11T10:33:39;58.70;;;28.70;;
46729;SDS011;32476;50.002;11.854;2023-02-11T10:36:18;63.67;;;29.80;;
46729;SDS011;32476;50.002;11.854;2023-02-11T10:38:48;51.53;;;27.47;;
46729;SDS011;32476;50.002;11.854;2023-02-11T10:41:21;57.00;;;29.37;;
46729;SDS011;32476;50.002;11.854;2023-02-11T10:43:57;57.83;;;30.23;;
46729;SDS011;32476;50.002;11.854;2023-02-11T10:46:26;62.57;;;29.57;;
46729;SDS011;32476;50.002;11.854;2023-02-11T10:48:59;61.87;;;28.03;;
46729;SDS011;32476;50.002;11.854;2023-02-11T10:51:25;54.97;;;28.33;;
46729;SDS011;32476;50.002;11.854;2023-02-11T10:56:31;51.83;;;27.77;;
46729;SDS011;32476;50.002;11.854;2023-02-11T10:59:04;57.27;;;28.60;;
46729;SDS011;32476;50.002;11.854;2023-02-11T11:01:52;55.03;;;28.87;;
46729;SDS011;32476;50.002;11.854;2023-02-11T11:06:55;57.40;;;29.30;;
46729;SDS011;32476;50.002;11.854;2023-02-11T11:09:29;63.60;;;29.70;;
46729;SDS011;32476;50.002;11.854;2023-02-11T11:15:15;64.93;;;31.00;;
46729;SDS011;32476;50.002;11.854;2023-02-11T11:20:55;62.47;;;30.53;;
46729;SDS011;32476;50.002;11.854;2023-02-11T11:23:22;58.70;;;30.10;;
46729;SDS011;32476;50.002;11.854;2023-02-11T11:25:59;62.60;;;30.40;;
46729;SDS011;32476;50.002;11.854;2023-02-11T11:28:25;57.47;;;29.80;;
46729;SDS011;32476;50.002;11.854;2023-02-11T11:30:55;62.30;;;32.00;;
46729;SDS011;32476;50.002;11.854;2023-02-11T11:33:30;61.13;;;29.63;;
46729;SDS011;32476;50.002;11.854;2023-02-11T11:38:30;68.07;;;33.57;;
46729;SDS011;32476;50.002;11.854;2023-02-11T11:41:14;62.80;;;30.27;;
46729;SDS011;32476;50.002;11.854;2023-02-11T11:46:35;68.73;;;29.63;;
46729;SDS011;32476;50.002;11.854;2023-02-11T11:49:16;65.17;;;31.00;;
46729;SDS011;32476;50.002;11.854;2023-02-11T11:51:50;61.37;;;29.13;;
46729;SDS011;32476;50.002;11.854;2023-02-11T11:54:36;65.87;;;31.10;;
46729;SDS011;32476;50.002;11.854;2023-02-11T11:57:10;67.00;;;31.03;;
46729;SDS011;32476;50.002;11.854;2023-02-11T11:59:42;69.47;;;31.40;;
46729;SDS011;32476;50.002;11.854;2023-02-11T12:05:02;60.70;;;29.53;;
46729;SDS011;32476;50.002;11.854;2023-02-11T12:07:53;66.00;;;30.97;;
46729;SDS011;32476;50.002;11.854;2023-02-11T12:16:49;67.27;;;31.93;;
46729;SDS011;32476;50.002;11.854;2023-02-11T12:19:32;63.67;;;31.63;;
46729;SDS011;32476;50.002;11.854;2023-02-11T12:25:25;63.60;;;30.77;;
46729;SDS011;32476;50.002;11.854;2023-02-11T12:28:30;62.10;;;30.37;;
46729;SDS011;32476;50.002;11.854;2023-02-11T12:31:36;63.33;;;30.43;;
46729;SDS011;32476;50.002;11.854;2023-02-11T12:34:18;62.40;;;30.77;;
46729;SDS011;32476;50.002;11.854;2023-02-11T12:37:24;67.00;;;30.17;;
46729;SDS011;32476;50.002;11.854;2023-02-11T12:54:37;68.97;;;32.43;;
46729;SDS011;32476;50.002;11.854;2023-02-11T12:57:12;68.10;;;30.93;;
46729;SDS011;32476;50.002;11.854;2023-02-11T12:59:54;68.30;;;31.93;;
46729;SDS011;32476;50.002;11.854;2023-02-11T13:05:39;68.37;;;31.50;;
46729;SDS011;32476;50.002;11.854;2023-02-11T13:08:36;60.20;;;31.07;;
46729;SDS011;32476;50.002;11.854;2023-02-11T13:11:14;76.40;;;33.87;;
46729;SDS011;32476;50.002;11.854;2023-02-11T13:13:46;70.40;;;33.30;;
46729;SDS011;32476;50.002;11.854;2023-02-11T13:16:42;66.27;;;31.10;;
46729;SDS011;32476;50.002;11.854;2023-02-11T13:22:42;67.23;;;32.20;;
46729;SDS011;32476;50.002;11.854;2023-02-11T13:24:57;70.60;;;33.67;;
46729;SDS011;32476;50.002;11.854;2023-02-11T13:28:19;70.37;;;30.83;;
46729;SDS011;32476;50.002;11.854;2023-02-11T13:31:05;74.87;;;34.03;;
46729;SDS011;32476;50.002;11.854;2023-02-11T13:33:35;82.20;;;36.13;;
46729;SDS011;32476;50.002;11.854;2023-02-11T13:38:35;73.87;;;35.70;;
46729;SDS011;32476;50.002;11.854;2023-02-11T13:46:46;67.17;;;32.80;;
46729;SDS011;32476;50.002;11.854;2023-02-11T13:49:22;70.60;;;33.83;;
46729;SDS011;32476;50.002;11.854;2023-02-11T13:51:51;72.57;;;33.67;;
46729;SDS011;32476;50.002;11.854;2023-02-11T13:54:37;75.00;;;35.87;;
46729;SDS011;32476;50.002;11.854;2023-02-11T13:59:44;78.60;;;35.57;;
46729;SDS011;32476;50.002;11.854;2023-02-11T14:10:56;79.47;;;34.90;;
46729;SDS011;32476;50.002;11.854;2023-02-11T14:16:13;75.43;;;36.00;;
46729;SDS011;32476;50.002;11.854;2023-02-11T14:23:53;83.20;;;36.57;;
46729;SDS011;32476;50.002;11.854;2023-02-11T14:26:45;74.63;;;35.57;;
46729;SDS011;32476;50.002;11.854;2023-02-11T14:29:29;69.10;;;34.53;;
46729;SDS011;32476;50.002;11.854;2023-02-11T14:35:42;79.40;;;36.90;;
46729;SDS011;32476;50.002;11.854;2023-02-11T14:38:29;75.63;;;33.77;;
46729;SDS011;32476;50.002;11.854;2023-02-11T14:41:10;72.60;;;34.27;;
46729;SDS011;32476;50.002;11.854;2023-02-11T14:43:52;76.17;;;35.60;;
46729;SDS011;32476;50.002;11.854;2023-02-11T14:46:25;73.73;;;36.47;;
46729;SDS011;32476;50.002;11.854;2023-02-11T14:48:55;72.33;;;35.70;;
46729;SDS011;32476;50.002;11.854;2023-02-11T14:51:27;72.77;;;36.17;;
46729;SDS011;32476;50.002;11.854;2023-02-11T14:53:58;71.33;;;35.33;;
46729;SDS011;32476;50.002;11.854;2023-02-11T14:56:39;76.57;;;35.97;;
46729;SDS011;32476;50.002;11.854;2023-02-11T14:59:20;77.07;;;35.57;;
46729;SDS011;32476;50.002;11.854;2023-02-11T15:01:50;79.50;;;35.50;;
46729;SDS011;32476;50.002;11.854;2023-02-11T15:04:27;83.97;;;36.77;;
46729;SDS011;32476;50.002;11.854;2023-02-11T15:07:01;88.50;;;36.40;;
46729;SDS011;32476;50.002;11.854;2023-02-11T15:09:41;90.77;;;38.53;;
46729;SDS011;32476;50.002;11.854;2023-02-11T15:12:18;81.57;;;38.90;;
46729;SDS011;32476;50.002;11.854;2023-02-11T15:14:54;82.13;;;38.07;;
46729;SDS011;32476;50.002;11.854;2023-02-11T15:17:27;82.20;;;38.13;;
46729;SDS011;32476;50.002;11.854;2023-02-11T15:19:57;78.73;;;35.63;;
46729;SDS011;32476;50.002;11.854;2023-02-11T15:22:28;71.23;;;35.10;;
46729;SDS011;32476;50.002;11.854;2023-02-11T15:25:01;86.73;;;38.80;;
46729;SDS011;32476;50.002;11.854;2023-02-11T15:27:37;85.20;;;38.10;;
46729;SDS011;32476;50.002;11.854;2023-02-11T15:32:48;70.67;;;36.57;;
46729;SDS011;32476;50.002;11.854;2023-02-11T15:35:25;71.80;;;35.43;;
46729;SDS011;32476;50.002;11.854;2023-02-11T15:38:00;77.57;;;35.10;;
46729;SDS011;32476;50.002;11.854;2023-02-11T15:40:29;79.87;;;39.30;;
46729;SDS011;32476;50.002;11.854;2023-02-11T15:43:04;78.53;;;35.03;;
46729;SDS011;32476;50.002;11.854;2023-02-11T15:45:37;77.27;;;36.13;;
46729;SDS011;32476;50.002;11.854;2023-02-11T15:48:13;78.00;;;36.60;;
46729;SDS011;32476;50.002;11.854;2023-02-11T15:53:56;71.20;;;35.00;;
46729;SDS011;32476;50.002;11.854;2023-02-11T15:56:42;72.13;;;35.13;;
46729;SDS011;32476;50.002;11.854;2023-02-11T16:01:51;71.60;;;34.93;;
46729;SDS011;32476;50.002;11.854;2023-02-11T16:04:21;78.93;;;35.20;;
46729;SDS011;32476;50.002;11.854;2023-02-11T16:06:50;72.93;;;35.93;;
46729;SDS011;32476;50.002;11.854;2023-02-11T16:12:24;72.10;;;35.77;;
46729;SDS011;32476;50.002;11.854;2023-02-11T16:14:53;75.80;;;34.50;;
46729;SDS011;32476;50.002;11.854;2023-02-11T16:17:24;78.77;;;36.53;;
46729;SDS011;32476;50.002;11.854;2023-02-11T16:19:52;72.43;;;34.83;;
46729;SDS011;32476;50.002;11.854;2023-02-11T16:22:22;76.60;;;35.60;;
46729;SDS011;32476;50.002;11.854;2023-02-11T16:24:52;73.77;;;35.57;;
46729;SDS011;32476;50.002;11.854;2023-02-11T16:27:23;72.03;;;33.03;;
46729;SDS011;32476;50.002;11.854;2023-02-11T16:30:00;69.40;;;34.83;;
46729;SDS011;32476;50.002;11.854;2023-02-11T16:32:27;58.50;;;31.20;;
46729;SDS011;32476;50.002;11.854;2023-02-11T16:34:56;70.97;;;34.63;;
46729;SDS011;32476;50.002;11.854;2023-02-11T16:37:26;72.37;;;34.37;;
46729;SDS011;32476;50.002;11.854;2023-02-11T16:39:52;71.93;;;35.57;;
46729;SDS011;32476;50.002;11.854;2023-02-11T16:42:19;70.13;;;34.73;;
46729;SDS011;32476;50.002;11.854;2023-02-11T16:44:47;69.73;;;33.77;;
46729;SDS011;32476;50.002;11.854;2023-02-11T16:47:21;72.93;;;35.23;;